PWSweather.com
Personal Weather Stations
Station Observations
KM4VKY
Mossy Head, Crestview, FL 32539

Mossy HeadCrestview, FL 32539

Lat: 30.70978546, Lon: -86.40254974

Elevation: 215

Station Type: Acurite

Latest ConditionsUpdated 5:15:00 PM CDT Friday, Oct 18, 2019
Currently Today's Max Today's Min Today's Average
Temperature 59.1°F15.1°C 60.4°F15.8°C 57.9°F14.4°C 58.6°F14.8°C
Dew Point 58.8°F14.9°C 59.2°F15.1°C 51.8°F11.0°C 54.0°F12.2°C
Winds 2.3 mph NE3.7 kmh NE 3.5 mph -5.6 kmh - - 1.6 mph 2.6 kmh
Wind Gusts 3.7 mph6.0 kmh 6.3 mph10.1 kmh - -
Humidity 99% 99% 79% 85%
Pressure 29.78 in1008.5 mb 29.89 in1012.2 mb 29.78 in1008.5 mb -
Precipitation - 0.16 in4.1 mm - -
Hour Temp Dew Point Humidity Winds Wind Gusts Pressure Precip Precip Rate Daily Precip Total
05:15 PM 59.1°F15.1°C 58.8°F14.9°C 99% 2.3 mph NE3.7 kmh NE 3.7 mph6.0 kmh 29.78 in1008.5 mb 0.02 in0.5 mm 0.00 in0.0 mm 0.16 in4.1 mm
05:10 PM 59.2°F15.1°C 58.9°F14.9°C 99% 2.6 mph E4.2 kmh E 6.3 mph10.1 kmh 29.78 in1008.5 mb 0.02 in0.5 mm 0.00 in0.0 mm 0.16 in4.1 mm
05:05 PM 59.1°F15.1°C 58.8°F14.9°C 99% 2.7 mph NE4.3 kmh NE 4.2 mph6.8 kmh 29.78 in1008.5 mb 0.03 in0.8 mm 0.00 in0.0 mm 0.16 in4.1 mm
05:00 PM 59.4°F15.2°C 59.1°F15.1°C 99% 2.2 mph ENE3.5 kmh ENE 4.2 mph6.8 kmh 29.78 in1008.5 mb 0.04 in1.0 mm 0.00 in0.0 mm 0.16 in4.1 mm
04:55 PM 59.3°F15.2°C 59.0°F15.0°C 99% 1.0 mph NE1.6 kmh NE 2.7 mph4.3 kmh 29.79 in1008.8 mb 0.04 in1.0 mm 0.12 in3.0 mm 0.16 in4.1 mm
04:50 PM 59.4°F15.2°C 59.1°F15.1°C 99% 1.7 mph ENE2.7 kmh ENE 2.7 mph4.3 kmh 29.79 in1008.8 mb 0.03 in0.8 mm 0.00 in0.0 mm 0.15 in3.8 mm
04:45 PM 59.4°F15.2°C 59.1°F15.1°C 99% 1.0 mph ENE1.6 kmh ENE 1.7 mph2.7 kmh 29.79 in1008.8 mb 0.04 in1.0 mm 0.00 in0.0 mm 0.15 in3.8 mm
04:40 PM 59.4°F15.2°C 59.1°F15.1°C 99% 2.0 mph ENE3.2 kmh ENE 3.7 mph6.0 kmh 29.79 in1008.8 mb 0.05 in1.3 mm 0.00 in0.0 mm 0.15 in3.8 mm
04:35 PM 59.4°F15.2°C 58.9°F14.9°C 98% 1.8 mph SE2.9 kmh SE 2.7 mph4.3 kmh 29.79 in1008.8 mb 0.05 in1.3 mm 0.00 in0.0 mm 0.15 in3.8 mm
04:30 PM 59.5°F15.3°C 59.2°F15.1°C 99% 1.8 mph SE2.9 kmh SE 5.3 mph8.5 kmh 29.79 in1008.8 mb 0.05 in1.3 mm 0.12 in3.0 mm 0.15 in3.8 mm
04:25 PM 59.5°F15.3°C 59.1°F15.1°C 98% 1.6 mph ENE2.6 kmh ENE 2.7 mph4.3 kmh 29.79 in1008.8 mb 0.04 in1.0 mm 0.00 in0.0 mm 0.14 in3.6 mm
04:20 PM 59.6°F15.3°C 59.1°F15.1°C 98% 1.5 mph ENE2.4 kmh ENE 3.2 mph5.1 kmh 29.80 in1009.1 mb 0.05 in1.3 mm 0.00 in0.0 mm 0.14 in3.6 mm
04:15 PM 59.7°F15.4°C 59.1°F15.1°C 98% 0.9 mph ENE1.4 kmh ENE 2.2 mph3.5 kmh 29.80 in1009.1 mb 0.05 in1.3 mm 0.00 in0.0 mm 0.14 in3.6 mm
04:10 PM 59.6°F15.3°C 58.9°F14.9°C 98% 1.8 mph E2.9 kmh E 3.2 mph5.1 kmh 29.80 in1009.1 mb 0.05 in1.3 mm 0.12 in3.0 mm 0.14 in3.6 mm
04:05 PM 59.9°F15.5°C 59.2°F15.1°C 98% 1.6 mph ESE2.6 kmh ESE 2.7 mph4.3 kmh 29.80 in1009.1 mb 0.04 in1.0 mm 0.00 in0.0 mm 0.13 in3.3 mm
04:00 PM 59.9°F15.5°C 59.0°F15.0°C 97% 1.9 mph NE3.1 kmh NE 2.7 mph4.3 kmh 29.80 in1009.1 mb 0.04 in1.0 mm 0.00 in0.0 mm 0.12 in3.0 mm
03:55 PM 60.1°F15.6°C 59.0°F15.0°C 96% 2.1 mph NE3.4 kmh NE 3.2 mph5.1 kmh 29.80 in1009.1 mb 0.04 in1.0 mm 0.00 in0.0 mm 0.12 in3.0 mm
03:50 PM 60.4°F15.8°C 59.2°F15.1°C 96% 0.4 mph SE0.6 kmh SE 3.2 mph5.1 kmh 29.80 in1009.1 mb 0.04 in1.0 mm 0.12 in3.0 mm 0.12 in3.0 mm
03:45 PM 60.3°F15.7°C 58.9°F14.9°C 95% 0.6 mph SE1.0 kmh SE 2.2 mph3.5 kmh 29.80 in1009.1 mb 0.03 in0.8 mm 0.05 in1.3 mm 0.11 in2.8 mm
07:05 AM 57.9°F14.4°C 52.3°F11.3°C 82% Calm Calm -- 29.86 in1011.2 mb 0.00 in0.0 mm 0.00 in0.0 mm 0.00 in0.0 mm
06:55 AM 58.1°F14.5°C 52.4°F11.3°C 81% Calm Calm -- 29.86 in1011.2 mb 0.00 in0.0 mm 0.00 in0.0 mm 0.00 in0.0 mm
06:50 AM 58.1°F14.5°C 52.4°F11.3°C 81% Calm Calm -- 29.86 in1011.2 mb 0.00 in0.0 mm 0.00 in0.0 mm 0.00 in0.0 mm
06:45 AM 58.1°F14.5°C 52.5°F11.4°C 82% Calm Calm -- 29.87 in1011.5 mb 0.00 in0.0 mm 0.00 in0.0 mm 0.00 in0.0 mm
06:40 AM 58.1°F14.5°C 52.4°F11.3°C 81% Calm Calm -- 29.87 in1011.5 mb 0.00 in0.0 mm 0.00 in0.0 mm 0.00 in0.0 mm
06:35 AM 58.1°F14.5°C 52.1°F11.2°C 80% Calm Calm -- 29.87 in1011.5 mb 0.00 in0.0 mm 0.00 in0.0 mm 0.00 in0.0 mm
06:30 AM 58.2°F14.6°C 51.8°F11.0°C 79% Calm Calm -- 29.87 in1011.5 mb 0.00 in0.0 mm 0.00 in0.0 mm 0.00 in0.0 mm
06:25 AM 58.3°F14.6°C 51.9°F11.1°C 79% Calm Calm -- 29.87 in1011.5 mb 0.00 in0.0 mm 0.00 in0.0 mm 0.00 in0.0 mm
06:20 AM 58.4°F14.7°C 52.3°F11.3°C 80% 0.5 mph ENE0.8 kmh ENE 2.2 mph3.5 kmh 29.86 in1011.2 mb 0.00 in0.0 mm 0.00 in0.0 mm 0.00 in0.0 mm
06:15 AM 58.5°F14.7°C 52.0°F11.1°C 79% 0.4 mph ENE0.6 kmh ENE 1.7 mph2.7 kmh 29.86 in1011.2 mb 0.00 in0.0 mm 0.00 in0.0 mm 0.00 in0.0 mm
06:10 AM 58.5°F14.7°C 52.2°F11.2°C 80% Calm Calm -- 29.85 in1010.8 mb 0.00 in0.0 mm 0.00 in0.0 mm 0.00 in0.0 mm
06:05 AM 58.3°F14.6°C 51.9°F11.1°C 79% 0.8 mph ENE1.3 kmh ENE 1.7 mph2.7 kmh 29.85 in1010.8 mb 0.00 in0.0 mm 0.00 in0.0 mm 0.00 in0.0 mm
06:00 AM 58.4°F14.7°C 52.2°F11.2°C 80% 1.1 mph ENE1.8 kmh ENE 1.7 mph2.7 kmh 29.85 in1010.8 mb 0.00 in0.0 mm 0.00 in0.0 mm 0.00 in0.0 mm
05:55 AM 58.3°F14.6°C 52.0°F11.1°C 80% 1.1 mph ENE1.8 kmh ENE 2.7 mph4.3 kmh 29.84 in1010.5 mb 0.00 in0.0 mm 0.00 in0.0 mm 0.00 in0.0 mm
05:50 AM 58.2°F14.6°C 52.0°F11.1°C 80% 1.7 mph ENE2.7 kmh ENE 2.7 mph4.3 kmh 29.84 in1010.5 mb 0.00 in0.0 mm 0.00 in0.0 mm 0.00 in0.0 mm
05:45 AM 58.3°F14.6°C 52.1°F11.2°C 80% 1.7 mph ENE2.7 kmh ENE 3.2 mph5.1 kmh 29.84 in1010.5 mb 0.00 in0.0 mm 0.00 in0.0 mm 0.00 in0.0 mm
05:40 AM 58.1°F14.5°C 51.9°F11.1°C 80% 1.7 mph ENE2.7 kmh ENE 3.2 mph5.1 kmh 29.84 in1010.5 mb 0.00 in0.0 mm 0.00 in0.0 mm 0.00 in0.0 mm
05:35 AM 58.1°F14.5°C 52.0°F11.1°C 80% 1.5 mph ENE2.4 kmh ENE 3.2 mph5.1 kmh 29.84 in1010.5 mb 0.00 in0.0 mm 0.00 in0.0 mm 0.00 in0.0 mm
05:30 AM 58.3°F14.6°C 52.5°F11.4°C 81% 1.6 mph ENE2.6 kmh ENE 3.7 mph6.0 kmh 29.84 in1010.5 mb 0.00 in0.0 mm 0.00 in0.0 mm 0.00 in0.0 mm
05:25 AM 58.3°F14.6°C 52.4°F11.3°C 81% 1.6 mph NE2.6 kmh NE 2.7 mph4.3 kmh 29.84 in1010.5 mb 0.00 in0.0 mm 0.00 in0.0 mm 0.00 in0.0 mm
05:20 AM 58.2°F14.6°C 52.2°F11.2°C 80% 1.6 mph NE2.6 kmh NE 2.7 mph4.3 kmh 29.83 in1010.2 mb 0.00 in0.0 mm 0.00 in0.0 mm 0.00 in0.0 mm
05:15 AM 58.1°F14.5°C 52.7°F11.5°C 82% 1.0 mph NE1.6 kmh NE 2.2 mph3.5 kmh 29.83 in1010.2 mb 0.00 in0.0 mm 0.00 in0.0 mm 0.00 in0.0 mm
05:10 AM 57.9°F14.4°C 52.5°F11.4°C 82% 1.9 mph NE3.1 kmh NE 2.7 mph4.3 kmh 29.83 in1010.2 mb 0.00 in0.0 mm 0.00 in0.0 mm 0.00 in0.0 mm
05:05 AM 57.9°F14.4°C 52.4°F11.3°C 82% 2.0 mph NE3.2 kmh NE 2.7 mph4.3 kmh 29.83 in1010.2 mb 0.00 in0.0 mm 0.00 in0.0 mm 0.00 in0.0 mm
05:00 AM 57.9°F14.4°C 52.3°F11.3°C 82% 2.2 mph ENE3.5 kmh ENE 3.7 mph6.0 kmh 29.83 in1010.2 mb 0.00 in0.0 mm 0.00 in0.0 mm 0.00 in0.0 mm
04:55 AM 58.0°F14.4°C 52.5°F11.4°C 82% 2.7 mph NE4.3 kmh NE 4.2 mph6.8 kmh 29.84 in1010.5 mb 0.00 in0.0 mm 0.00 in0.0 mm 0.00 in0.0 mm
04:50 AM 58.1°F14.5°C 52.7°F11.5°C 82% Calm Calm -- 29.84 in1010.5 mb 0.00 in0.0 mm 0.00 in0.0 mm 0.00 in0.0 mm
04:45 AM 57.9°F14.4°C 52.6°F11.4°C 82% 0.1 mph NE0.2 kmh NE 1.1 mph1.8 kmh 29.83 in1010.2 mb 0.00 in0.0 mm 0.00 in0.0 mm 0.00 in0.0 mm
04:40 AM 58.0°F14.4°C 52.5°F11.4°C 82% Calm Calm -- 29.83 in1010.2 mb 0.00 in0.0 mm 0.00 in0.0 mm 0.00 in0.0 mm
04:35 AM 58.1°F14.5°C 52.4°F11.3°C 81% 0.9 mph NE1.4 kmh NE 2.7 mph4.3 kmh 29.83 in1010.2 mb 0.00 in0.0 mm 0.00 in0.0 mm 0.00 in0.0 mm
04:30 AM 58.2°F14.6°C 52.7°F11.5°C 82% 1.5 mph NE2.4 kmh NE 2.7 mph4.3 kmh 29.83 in1010.2 mb 0.00 in0.0 mm 0.00 in0.0 mm 0.00 in0.0 mm
04:25 AM 58.3°F14.6°C 53.0°F11.7°C 82% 1.6 mph NE2.6 kmh NE 2.7 mph4.3 kmh 29.83 in1010.2 mb 0.00 in0.0 mm 0.00 in0.0 mm 0.00 in0.0 mm
04:20 AM 58.1°F14.5°C 53.1°F11.7°C 83% 1.5 mph NE2.4 kmh NE 3.2 mph5.1 kmh 29.84 in1010.5 mb 0.00 in0.0 mm 0.00 in0.0 mm 0.00 in0.0 mm
04:15 AM 57.9°F14.4°C 52.9°F11.6°C 83% 2.5 mph NE4.0 kmh NE 3.7 mph6.0 kmh 29.84 in1010.5 mb 0.00 in0.0 mm 0.00 in0.0 mm 0.00 in0.0 mm
04:10 AM 57.9°F14.4°C 52.9°F11.6°C 84% 3.0 mph NE4.8 kmh NE 3.7 mph6.0 kmh 29.84 in1010.5 mb 0.00 in0.0 mm 0.00 in0.0 mm 0.00 in0.0 mm
04:05 AM 57.9°F14.4°C 52.9°F11.6°C 83% 2.6 mph NE4.2 kmh NE 3.7 mph6.0 kmh 29.84 in1010.5 mb 0.00 in0.0 mm 0.00 in0.0 mm 0.00 in0.0 mm
04:00 AM 57.9°F14.4°C 53.0°F11.7°C 84% 2.6 mph ENE4.2 kmh ENE 3.2 mph5.1 kmh 29.84 in1010.5 mb 0.00 in0.0 mm 0.00 in0.0 mm 0.00 in0.0 mm
03:55 AM 57.9°F14.4°C 53.1°F11.7°C 84% 2.0 mph ENE3.2 kmh ENE 2.7 mph4.3 kmh 29.84 in1010.5 mb 0.00 in0.0 mm 0.00 in0.0 mm 0.00 in0.0 mm
03:50 AM 57.9°F14.4°C 52.7°F11.5°C 83% 1.8 mph ENE2.9 kmh ENE 2.2 mph3.5 kmh 29.84 in1010.5 mb 0.00 in0.0 mm 0.00 in0.0 mm 0.00 in0.0 mm
03:45 AM 58.1°F14.5°C 52.6°F11.4°C 82% 1.7 mph ENE2.7 kmh ENE 2.2 mph3.5 kmh 29.84 in1010.5 mb 0.00 in0.0 mm 0.00 in0.0 mm 0.00 in0.0 mm
03:40 AM 58.1°F14.5°C 53.0°F11.7°C 83% 1.6 mph ENE2.6 kmh ENE 2.2 mph3.5 kmh 29.84 in1010.5 mb 0.00 in0.0 mm 0.00 in0.0 mm 0.00 in0.0 mm
03:35 AM 58.1°F14.5°C 53.0°F11.7°C 83% 1.4 mph ENE2.3 kmh ENE 1.7 mph2.7 kmh 29.84 in1010.5 mb 0.00 in0.0 mm 0.00 in0.0 mm 0.00 in0.0 mm
03:30 AM 58.1°F14.5°C 52.8°F11.6°C 82% 1.7 mph ENE2.7 kmh ENE 2.2 mph3.5 kmh 29.85 in1010.8 mb 0.00 in0.0 mm 0.00 in0.0 mm 0.00 in0.0 mm
03:25 AM 58.3°F14.6°C 52.7°F11.5°C 82% 1.0 mph ENE1.6 kmh ENE 2.7 mph4.3 kmh 29.85 in1010.8 mb 0.00 in0.0 mm 0.00 in0.0 mm 0.00 in0.0 mm
03:20 AM 58.4°F14.7°C 53.1°F11.7°C 83% 1.0 mph ENE1.6 kmh ENE 1.7 mph2.7 kmh 29.85 in1010.8 mb 0.00 in0.0 mm 0.00 in0.0 mm 0.00 in0.0 mm
03:15 AM 58.1°F14.5°C 52.7°F11.5°C 82% 1.7 mph ENE2.7 kmh ENE 2.7 mph4.3 kmh 29.85 in1010.8 mb 0.00 in0.0 mm 0.00 in0.0 mm 0.00 in0.0 mm
03:10 AM 58.3°F14.6°C 52.8°F11.6°C 82% 1.5 mph ENE2.4 kmh ENE 2.7 mph4.3 kmh 29.86 in1011.2 mb 0.00 in0.0 mm 0.00 in0.0 mm 0.00 in0.0 mm
03:05 AM 58.3°F14.6°C 52.7°F11.5°C 82% 1.7 mph E2.7 kmh E 3.7 mph6.0 kmh 29.86 in1011.2 mb 0.00 in0.0 mm 0.00 in0.0 mm 0.00 in0.0 mm
03:00 AM 58.3°F14.6°C 53.3°F11.8°C 83% 2.3 mph NE3.7 kmh NE 3.7 mph6.0 kmh 29.86 in1011.2 mb 0.00 in0.0 mm 0.00 in0.0 mm 0.00 in0.0 mm
02:55 AM 58.3°F14.6°C 53.2°F11.8°C 83% 2.0 mph ENE3.2 kmh ENE 2.7 mph4.3 kmh 29.86 in1011.2 mb 0.00 in0.0 mm 0.00 in0.0 mm 0.00 in0.0 mm
02:50 AM 58.4°F14.7°C 53.1°F11.7°C 83% 1.8 mph ENE2.9 kmh ENE 2.7 mph4.3 kmh 29.86 in1011.2 mb 0.00 in0.0 mm 0.00 in0.0 mm 0.00 in0.0 mm
02:45 AM 58.5°F14.7°C 52.9°F11.6°C 82% 1.6 mph ENE2.6 kmh ENE 2.7 mph4.3 kmh 29.86 in1011.2 mb 0.00 in0.0 mm 0.00 in0.0 mm 0.00 in0.0 mm
02:40 AM 58.5°F14.7°C 53.0°F11.7°C 82% 1.3 mph ENE2.1 kmh ENE 2.7 mph4.3 kmh 29.86 in1011.2 mb 0.00 in0.0 mm 0.00 in0.0 mm 0.00 in0.0 mm
02:35 AM 58.5°F14.7°C 53.0°F11.7°C 82% 2.0 mph ENE3.2 kmh ENE 2.7 mph4.3 kmh 29.86 in1011.2 mb 0.00 in0.0 mm 0.00 in0.0 mm 0.00 in0.0 mm
02:30 AM 58.5°F14.7°C 53.0°F11.7°C 82% 2.1 mph ENE3.4 kmh ENE 2.7 mph4.3 kmh 29.87 in1011.5 mb 0.00 in0.0 mm 0.00 in0.0 mm 0.00 in0.0 mm
02:25 AM 58.6°F14.8°C 53.0°F11.7°C 82% 2.1 mph NE3.4 kmh NE 3.7 mph6.0 kmh 29.87 in1011.5 mb 0.00 in0.0 mm 0.00 in0.0 mm 0.00 in0.0 mm
02:20 AM 58.6°F14.8°C 53.0°F11.7°C 82% 1.5 mph NE2.4 kmh NE 2.2 mph3.5 kmh 29.87 in1011.5 mb 0.00 in0.0 mm 0.00 in0.0 mm 0.00 in0.0 mm
02:15 AM 58.6°F14.8°C 53.2°F11.8°C 82% 1.7 mph NE2.7 kmh NE 2.7 mph4.3 kmh 29.87 in1011.5 mb 0.00 in0.0 mm 0.00 in0.0 mm 0.00 in0.0 mm
02:10 AM 58.6°F14.8°C 53.4°F11.9°C 83% 2.1 mph NE3.4 kmh NE 3.2 mph5.1 kmh 29.87 in1011.5 mb 0.00 in0.0 mm 0.00 in0.0 mm 0.00 in0.0 mm
02:05 AM 58.6°F14.8°C 53.8°F12.1°C 84% 2.2 mph NNE3.5 kmh NNE 3.2 mph5.1 kmh 29.87 in1011.5 mb 0.00 in0.0 mm 0.00 in0.0 mm 0.00 in0.0 mm
02:00 AM 58.3°F14.6°C 53.5°F11.9°C 84% 3.5 mph NE5.6 kmh NE 4.7 mph7.6 kmh 29.87 in1011.5 mb 0.00 in0.0 mm 0.00 in0.0 mm 0.00 in0.0 mm
01:55 AM 58.3°F14.6°C 53.5°F11.9°C 84% 3.0 mph NE4.8 kmh NE 4.7 mph7.6 kmh 29.88 in1011.9 mb 0.00 in0.0 mm 0.00 in0.0 mm 0.00 in0.0 mm
01:50 AM 58.4°F14.7°C 53.8°F12.1°C 85% 2.1 mph NE3.4 kmh NE 2.7 mph4.3 kmh 29.88 in1011.9 mb 0.00 in0.0 mm 0.00 in0.0 mm 0.00 in0.0 mm
01:45 AM 58.7°F14.8°C 54.1°F12.3°C 85% 1.1 mph NE1.8 kmh NE 1.7 mph2.7 kmh 29.88 in1011.9 mb 0.00 in0.0 mm 0.00 in0.0 mm 0.00 in0.0 mm
01:40 AM 58.7°F14.8°C 53.9°F12.2°C 84% 1.2 mph NE1.9 kmh NE 1.7 mph2.7 kmh 29.88 in1011.9 mb 0.00 in0.0 mm 0.00 in0.0 mm 0.00 in0.0 mm
01:35 AM 58.6°F14.8°C 53.6°F12.0°C 84% 1.7 mph NE2.7 kmh NE 2.2 mph3.5 kmh 29.88 in1011.9 mb 0.00 in0.0 mm 0.00 in0.0 mm 0.00 in0.0 mm
01:30 AM 58.6°F14.8°C 53.5°F11.9°C 83% 1.7 mph NE2.7 kmh NE 2.7 mph4.3 kmh 29.89 in1012.2 mb 0.00 in0.0 mm 0.00 in0.0 mm 0.00 in0.0 mm
01:25 AM 58.5°F14.7°C 53.1°F11.7°C 82% 2.3 mph NE3.7 kmh NE 3.2 mph5.1 kmh 29.89 in1012.2 mb 0.00 in0.0 mm 0.00 in0.0 mm 0.00 in0.0 mm
01:20 AM 58.5°F14.7°C 53.4°F11.9°C 83% 2.8 mph NE4.5 kmh NE 3.7 mph6.0 kmh 29.89 in1012.2 mb 0.00 in0.0 mm 0.00 in0.0 mm 0.00 in0.0 mm
01:15 AM 58.6°F14.8°C 53.1°F11.7°C 82% 1.6 mph ENE2.6 kmh ENE 1.7 mph2.7 kmh 29.89 in1012.2 mb 0.00 in0.0 mm 0.00 in0.0 mm 0.00 in0.0 mm
01:10 AM 58.8°F14.9°C 53.0°F11.7°C 81% 1.3 mph ENE2.1 kmh ENE 1.7 mph2.7 kmh 29.89 in1012.2 mb 0.00 in0.0 mm 0.00 in0.0 mm 0.00 in0.0 mm
01:05 AM 58.8°F14.9°C 53.0°F11.7°C 81% 1.5 mph ENE2.4 kmh ENE 2.2 mph3.5 kmh 29.89 in1012.2 mb 0.00 in0.0 mm 0.00 in0.0 mm 0.00 in0.0 mm
01:00 AM 58.8°F14.9°C 52.8°F11.6°C 80% 1.4 mph ENE2.3 kmh ENE 2.2 mph3.5 kmh 29.89 in1012.2 mb 0.00 in0.0 mm 0.00 in0.0 mm 0.00 in0.0 mm
12:55 AM 59.2°F15.1°C 53.5°F11.9°C 82% 1.5 mph ENE2.4 kmh ENE 1.7 mph2.7 kmh 29.89 in1012.2 mb 0.00 in0.0 mm 0.00 in0.0 mm 0.00 in0.0 mm
12:50 AM 59.2°F15.1°C 53.2°F11.8°C 81% 1.4 mph ENE2.3 kmh ENE 1.7 mph2.7 kmh 29.89 in1012.2 mb 0.00 in0.0 mm 0.00 in0.0 mm 0.00 in0.0 mm
12:45 AM 59.2°F15.1°C 53.1°F11.7°C 80% 1.5 mph ENE2.4 kmh ENE 2.2 mph3.5 kmh 29.89 in1012.2 mb 0.00 in0.0 mm 0.00 in0.0 mm 0.00 in0.0 mm
12:40 AM 59.2°F15.1°C 53.4°F11.9°C 81% 1.9 mph ENE3.1 kmh ENE 3.2 mph5.1 kmh 29.89 in1012.2 mb 0.00 in0.0 mm 0.00 in0.0 mm 0.00 in0.0 mm
12:35 AM 59.2°F15.1°C 53.0°F11.7°C 80% 2.3 mph ENE3.7 kmh ENE 3.7 mph6.0 kmh 29.89 in1012.2 mb 0.00 in0.0 mm 0.00 in0.0 mm 0.00 in0.0 mm
12:30 AM 59.2°F15.1°C 53.1°F11.7°C 80% 1.9 mph ENE3.1 kmh ENE 2.7 mph4.3 kmh 29.89 in1012.2 mb 0.00 in0.0 mm 0.00 in0.0 mm 0.00 in0.0 mm
12:25 AM 59.2°F15.1°C 53.4°F11.9°C 81% 2.1 mph NE3.4 kmh NE 4.2 mph6.8 kmh 29.89 in1012.2 mb 0.00 in0.0 mm 0.00 in0.0 mm 0.00 in0.0 mm
12:20 AM 59.1°F15.1°C 53.5°F11.9°C 82% 2.3 mph NE3.7 kmh NE 4.7 mph7.6 kmh 29.89 in1012.2 mb 0.00 in0.0 mm 0.00 in0.0 mm 0.00 in0.0 mm
12:15 AM 59.0°F15.0°C 53.5°F11.9°C 82% 3.5 mph NNE5.6 kmh NNE 5.8 mph9.3 kmh 29.89 in1012.2 mb 0.00 in0.0 mm 0.00 in0.0 mm 0.00 in0.0 mm
12:10 AM 59.1°F15.1°C 53.8°F12.1°C 83% 3.3 mph NE5.3 kmh NE 4.7 mph7.6 kmh 29.89 in1012.2 mb 0.00 in0.0 mm 0.00 in0.0 mm 0.00 in0.0 mm
12:05 AM 59.2°F15.1°C 53.8°F12.1°C 82% 3.0 mph ENE4.8 kmh ENE 3.7 mph6.0 kmh 29.89 in1012.2 mb 0.00 in0.0 mm 0.00 in0.0 mm 0.00 in0.0 mm
12:00 AM 59.4°F15.2°C 53.7°F12.1°C 82% 2.4 mph ENE3.9 kmh ENE 3.2 mph5.1 kmh 29.89 in1012.2 mb 0.00 in0.0 mm 0.00 in0.0 mm 0.00 in0.0 mm